createdAt,value
2022-07-29T00:00:16.762Z,1017.03
2022-07-29T00:00:48.039Z,1017.03
2022-07-29T00:01:19.853Z,1016.93
2022-07-29T00:01:52.033Z,1016.93
2022-07-29T00:02:23.456Z,1017.13
2022-07-29T00:02:56.102Z,1017.13
2022-07-29T00:03:27.386Z,1017.13
2022-07-29T00:04:00.290Z,1017.13
2022-07-29T00:04:31.362Z,1017.13
2022-07-29T00:05:04.035Z,1017.24
2022-07-29T00:05:35.348Z,1017.24
2022-07-29T00:06:07.962Z,1017.13
2022-07-29T00:06:39.185Z,1017.13
2022-07-29T00:07:12.008Z,1017.13
2022-07-29T00:07:43.175Z,1017.13
2022-07-29T00:08:15.758Z,1016.93
2022-07-29T00:08:47.257Z,1016.93
2022-07-29T00:09:19.571Z,1016.93
2022-07-29T00:09:52.512Z,1016.93
2022-07-29T00:10:23.872Z,1016.83
2022-07-29T00:10:54.932Z,1016.93
2022-07-29T00:11:27.751Z,1016.93
2022-07-29T00:11:58.908Z,1016.93
2022-07-29T00:12:31.642Z,1016.93
2022-07-29T00:13:02.999Z,1016.83
2022-07-29T00:13:35.792Z,1016.83
2022-07-29T00:14:06.819Z,1017.03
2022-07-29T00:14:39.525Z,1017.03
2022-07-29T00:15:11.614Z,1017.13
2022-07-29T00:15:43.806Z,1017.13
2022-07-29T00:16:14.811Z,1017.03
2022-07-29T00:16:47.441Z,1017.03
2022-07-29T00:17:18.976Z,1017.13
2022-07-29T00:17:51.450Z,1017.13
2022-07-29T00:18:22.737Z,1016.73
2022-07-29T00:18:55.405Z,1016.93
2022-07-29T00:19:26.644Z,1016.93
2022-07-29T00:19:59.143Z,1016.83
2022-07-29T00:20:31.073Z,1016.83
2022-07-29T00:21:03.252Z,1016.93
2022-07-29T00:21:34.606Z,1016.93
2022-07-29T00:22:07.281Z,1016.93
2022-07-29T00:22:38.664Z,1016.93
2022-07-29T00:23:13.654Z,1016.83
2022-07-29T00:23:42.678Z,1016.83
2022-07-29T00:24:15.536Z,1016.63
2022-07-29T00:24:46.457Z,1016.63
2022-07-29T00:25:19.310Z,1016.73
2022-07-29T00:25:50.376Z,1016.73
2022-07-29T00:26:23.054Z,1016.73
2022-07-29T00:26:54.421Z,1016.73
2022-07-29T00:27:26.967Z,1016.83
2022-07-29T00:27:58.340Z,1016.73
2022-07-29T00:28:30.986Z,1016.73
2022-07-29T00:29:32.602Z,1016.73
2022-07-29T00:29:50.407Z,1016.73
2022-07-29T00:30:23.189Z,1016.63
2022-07-29T00:30:54.938Z,1016.63
2022-07-29T00:31:26.355Z,1016.93
2022-07-29T00:31:58.838Z,1016.73
2022-07-29T00:32:30.270Z,1016.73
2022-07-29T00:33:05.853Z,1016.83
2022-07-29T00:33:34.042Z,1016.83
2022-07-29T00:34:06.818Z,1016.83
2022-07-29T00:34:38.135Z,1016.83
2022-07-29T00:35:10.635Z,1016.63
2022-07-29T00:35:42.117Z,1016.63
2022-07-29T00:36:14.640Z,1016.52
2022-07-29T00:36:45.966Z,1016.52
2022-07-29T00:37:18.519Z,1016.52
2022-07-29T00:37:50.023Z,1016.52
2022-07-29T00:38:22.526Z,1016.52
2022-07-29T00:38:53.954Z,1016.52
2022-07-29T00:39:26.376Z,1016.63
2022-07-29T00:39:57.954Z,1016.73
2022-07-29T00:40:30.640Z,1016.73
2022-07-29T00:41:01.942Z,1016.63
2022-07-29T00:41:34.549Z,1016.63
2022-07-29T00:42:05.850Z,1016.52
2022-07-29T00:42:38.541Z,1016.52
2022-07-29T00:43:09.680Z,1016.42
2022-07-29T00:43:42.203Z,1016.42
2022-07-29T00:44:13.938Z,1016.73
2022-07-29T00:44:46.352Z,1016.73
2022-07-29T00:45:18.321Z,1016.52
2022-07-29T00:45:50.367Z,1016.52
2022-07-29T00:46:21.776Z,1016.52
2022-07-29T00:46:54.322Z,1016.52
2022-07-29T00:47:25.601Z,1016.73
2022-07-29T00:47:58.217Z,1016.93
2022-07-29T00:48:29.516Z,1016.93
2022-07-29T00:49:02.034Z,1016.83
2022-07-29T00:49:33.387Z,1016.83
2022-07-29T00:50:06.114Z,1016.73
2022-07-29T00:50:37.417Z,1016.73
2022-07-29T00:51:10.100Z,1016.73
2022-07-29T00:51:41.340Z,1016.73
2022-07-29T00:52:16.939Z,1016.73
2022-07-29T00:52:45.369Z,1016.73
2022-07-29T00:53:17.775Z,1016.83
2022-07-29T00:53:49.198Z,1016.83
2022-07-29T00:54:22.014Z,1016.63
2022-07-29T00:54:53.375Z,1016.63
2022-07-29T00:55:27.255Z,1016.63
2022-07-29T00:55:57.229Z,1016.73
2022-07-29T00:56:29.786Z,1016.73
2022-07-29T00:57:01.049Z,1016.73
2022-07-29T00:57:33.816Z,1016.73
2022-07-29T00:58:05.124Z,1016.63
2022-07-29T00:58:37.782Z,1016.63
2022-07-29T00:59:09.079Z,1016.83
2022-07-29T00:59:41.676Z,1016.83
2022-07-29T01:00:13.916Z,1016.83
2022-07-29T01:00:45.680Z,1016.83
2022-07-29T01:01:17.228Z,1016.93
2022-07-29T01:01:49.655Z,1016.93
2022-07-29T01:02:21.010Z,1016.93
2022-07-29T01:02:53.520Z,1016.93
2022-07-29T01:03:24.861Z,1016.83
2022-07-29T01:03:57.329Z,1016.93
2022-07-29T01:04:28.850Z,1016.93
2022-07-29T01:05:01.864Z,1016.93
2022-07-29T01:05:48.148Z,1016.93
2022-07-29T01:06:05.380Z,1016.83
2022-07-29T01:06:36.915Z,1016.83
2022-07-29T01:07:09.476Z,1017.03
2022-07-29T01:07:40.785Z,1017.03
2022-07-29T01:08:13.599Z,1016.63
2022-07-29T01:08:44.699Z,1016.63
2022-07-29T01:09:17.198Z,1017.03
2022-07-29T01:09:48.776Z,1017.03
2022-07-29T01:10:21.447Z,1016.73
2022-07-29T01:10:52.677Z,1016.73
2022-07-29T01:11:25.341Z,1017.13
2022-07-29T01:11:56.475Z,1016.73
2022-07-29T01:12:29.235Z,1016.73
2022-07-29T01:13:00.552Z,1016.73
2022-07-29T01:13:32.983Z,1016.73
2022-07-29T01:14:04.525Z,1016.73
2022-07-29T01:14:37.314Z,1016.73
2022-07-29T01:15:09.182Z,1017.03
2022-07-29T01:15:41.068Z,1017.03
2022-07-29T01:16:12.547Z,1016.83
2022-07-29T01:16:44.854Z,1016.83
2022-07-29T01:17:16.421Z,1017.03
2022-07-29T01:17:52.403Z,1017.03
2022-07-29T01:18:21.996Z,1016.93
2022-07-29T01:18:53.854Z,1016.93
2022-07-29T01:19:24.205Z,1016.73
2022-07-29T01:19:56.596Z,1016.83
2022-07-29T01:20:31.735Z,1016.83
2022-07-29T01:21:00.858Z,1016.83
2022-07-29T01:21:32.124Z,1016.83
2022-07-29T01:22:04.725Z,1016.93
2022-07-29T01:22:36.150Z,1016.93
2022-07-29T01:23:08.993Z,1016.83
2022-07-29T01:23:40.041Z,1016.83
2022-07-29T01:24:13.508Z,1016.83
2022-07-29T01:24:44.054Z,1016.83
2022-07-29T01:25:16.859Z,1016.83
2022-07-29T01:25:53.127Z,1016.83
2022-07-29T01:26:20.752Z,1016.83
2022-07-29T01:26:52.001Z,1016.83
2022-07-29T01:27:24.607Z,1016.83
2022-07-29T01:27:56.003Z,1016.63
2022-07-29T01:28:28.412Z,1016.63
2022-07-29T01:28:59.856Z,1016.73
2022-07-29T01:29:38.788Z,1016.73
2022-07-29T01:30:05.160Z,1016.83
2022-07-29T01:30:19.781Z,1016.83
2022-07-29T01:30:52.001Z,1016.83
2022-07-29T01:31:25.402Z,1016.73
2022-07-29T01:31:59.316Z,1016.73
2022-07-29T01:32:29.170Z,1016.73
2022-07-29T01:33:00.352Z,1016.73
2022-07-29T01:33:31.642Z,1016.73
2022-07-29T01:34:04.032Z,1016.83
2022-07-29T01:34:35.626Z,1016.83
2022-07-29T01:35:08.398Z,1016.73
2022-07-29T01:35:39.474Z,1016.73
2022-07-29T01:36:12.037Z,1016.63
2022-07-29T01:36:43.638Z,1016.63
2022-07-29T01:37:16.151Z,1016.93
2022-07-29T01:37:47.474Z,1016.93
2022-07-29T01:38:20.129Z,1016.83
2022-07-29T01:38:51.573Z,1016.83
2022-07-29T01:39:24.065Z,1016.93
2022-07-29T01:39:55.480Z,1016.73
2022-07-29T01:40:28.507Z,1016.73
2022-07-29T01:40:59.269Z,1016.83
2022-07-29T01:41:31.955Z,1016.83
2022-07-29T01:42:03.365Z,1016.73
2022-07-29T01:42:36.348Z,1016.73
2022-07-29T01:43:07.296Z,1016.93
2022-07-29T01:43:40.016Z,1016.93
2022-07-29T01:44:11.157Z,1017.03
2022-07-29T01:44:44.241Z,1017.03
2022-07-29T01:45:15.965Z,1016.83
2022-07-29T01:45:47.923Z,1016.83
2022-07-29T01:46:19.217Z,1016.73
2022-07-29T01:46:52.076Z,1016.73
2022-07-29T01:47:23.125Z,1016.73
2022-07-29T01:47:55.782Z,1016.83
2022-07-29T01:48:27.059Z,1016.83
2022-07-29T01:48:59.597Z,1016.93
2022-07-29T01:49:31.049Z,1016.93
2022-07-29T01:50:03.916Z,1016.42
2022-07-29T01:50:35.138Z,1016.42
2022-07-29T01:51:07.759Z,1016.63
2022-07-29T01:51:39.019Z,1016.63
2022-07-29T01:52:11.536Z,1016.73
2022-07-29T01:52:42.943Z,1016.73
2022-07-29T01:53:15.468Z,1016.73
2022-07-29T01:53:46.956Z,1016.73
2022-07-29T01:54:19.654Z,1016.63
2022-07-29T01:54:50.873Z,1016.63
2022-07-29T01:55:23.644Z,1016.42
2022-07-29T01:55:54.833Z,1016.42
2022-07-29T01:56:27.303Z,1016.42
2022-07-29T01:56:58.832Z,1016.52
2022-07-29T01:57:31.229Z,1016.52
2022-07-29T01:58:02.837Z,1016.52
2022-07-29T01:58:35.482Z,1016.52
2022-07-29T01:59:06.541Z,1016.42
2022-07-29T01:59:39.572Z,1016.42
2022-07-29T02:00:12.218Z,1016.32
2022-07-29T02:00:43.648Z,1016.32
2022-07-29T02:01:14.689Z,1016.42
2022-07-29T02:01:47.119Z,1016.42
2022-07-29T02:02:18.553Z,1016.42
2022-07-29T02:02:51.173Z,1016.42
2022-07-29T02:03:22.716Z,1016.42
2022-07-29T02:03:55.036Z,1016.42
2022-07-29T02:04:28.865Z,1016.52
2022-07-29T02:04:59.197Z,1016.32
2022-07-29T02:05:30.840Z,1016.32
2022-07-29T02:06:03.102Z,1016.63
2022-07-29T02:06:34.427Z,1016.63
2022-07-29T02:07:06.963Z,1016.63
2022-07-29T02:07:38.302Z,1016.63
2022-07-29T02:08:11.145Z,1016.52
2022-07-29T02:08:42.556Z,1016.52
2022-07-29T02:09:14.936Z,1016.42
2022-07-29T02:09:46.235Z,1016.42
2022-07-29T02:10:19.254Z,1016.63
2022-07-29T02:10:50.183Z,1016.63
2022-07-29T02:11:22.855Z,1016.52
2022-07-29T02:11:54.216Z,1016.52
2022-07-29T02:12:26.808Z,1016.42
2022-07-29T02:12:58.095Z,1016.52
2022-07-29T02:13:30.827Z,1016.52
2022-07-29T02:14:01.882Z,1016.42
2022-07-29T02:14:34.539Z,1016.42
2022-07-29T02:15:06.882Z,1016.73
2022-07-29T02:15:38.587Z,1016.73
2022-07-29T02:16:10.110Z,1016.63
2022-07-29T02:16:42.580Z,1016.63
2022-07-29T02:17:13.720Z,1016.73
2022-07-29T02:17:47.702Z,1016.73
2022-07-29T02:18:17.892Z,1016.73
2022-07-29T02:18:50.278Z,1016.73
2022-07-29T02:19:21.727Z,1016.52
2022-07-29T02:19:54.415Z,1016.52
2022-07-29T02:20:25.992Z,1016.52
2022-07-29T02:20:58.266Z,1016.32
2022-07-29T02:21:29.698Z,1016.32
2022-07-29T02:22:02.243Z,1016.73
2022-07-29T02:22:33.691Z,1016.73
2022-07-29T02:23:06.698Z,1016.42
2022-07-29T02:23:45.170Z,1016.42
2022-07-29T02:24:10.114Z,1016.52
2022-07-29T02:24:41.626Z,1016.52
2022-07-29T02:25:14.426Z,1016.63
2022-07-29T02:25:45.429Z,1016.63
2022-07-29T02:26:18.187Z,1016.63
2022-07-29T02:26:49.888Z,1016.63
2022-07-29T02:27:21.994Z,1016.52
2022-07-29T02:27:53.484Z,1016.52
2022-07-29T02:28:26.034Z,1016.52
2022-07-29T02:28:57.372Z,1016.52
2022-07-29T02:29:29.918Z,1016.52
2022-07-29T02:30:02.721Z,1016.42
2022-07-29T02:30:33.808Z,1016.42
2022-07-29T02:31:05.343Z,1016.63
2022-07-29T02:31:38.161Z,1016.63
2022-07-29T02:32:09.165Z,1016.42
2022-07-29T02:32:42.002Z,1016.42
2022-07-29T02:33:13.302Z,1016.52
2022-07-29T02:33:45.689Z,1016.52
2022-07-29T02:34:17.535Z,1016.63
2022-07-29T02:34:49.904Z,1016.63
2022-07-29T02:35:21.335Z,1016.52
2022-07-29T02:35:53.702Z,1016.52
2022-07-29T02:36:25.206Z,1016.22
2022-07-29T02:36:57.796Z,1016.52
2022-07-29T02:37:29.083Z,1016.52
2022-07-29T02:38:02.224Z,1016.42
2022-07-29T02:38:33.132Z,1016.42
2022-07-29T02:39:05.582Z,1016.52
2022-07-29T02:39:37.058Z,1016.52
2022-07-29T02:40:09.697Z,1016.63
2022-07-29T02:40:40.993Z,1016.63
2022-07-29T02:41:13.407Z,1016.42
2022-07-29T02:41:45.086Z,1016.42
2022-07-29T02:42:18.033Z,1016.22
2022-07-29T02:42:48.893Z,1016.22
2022-07-29T02:43:21.467Z,1016.42
2022-07-29T02:43:52.737Z,1016.42
2022-07-29T02:44:25.433Z,1016.63
2022-07-29T02:44:56.854Z,1016.42
2022-07-29T02:45:30.208Z,1016.42
2022-07-29T02:46:00.839Z,1016.42
2022-07-29T02:46:33.442Z,1016.42
2022-07-29T02:47:04.749Z,1016.52
2022-07-29T02:47:42.069Z,1016.52
2022-07-29T02:48:08.750Z,1016.52
2022-07-29T02:48:41.200Z,1016.52
2022-07-29T02:49:12.593Z,1016.32
2022-07-29T02:49:45.169Z,1016.32
2022-07-29T02:50:16.675Z,1016.63
2022-07-29T02:50:49.219Z,1016.63
2022-07-29T02:51:44.135Z,1016.52
2022-07-29T02:51:52.944Z,1016.52
2022-07-29T02:52:24.421Z,1016.42
2022-07-29T02:52:57.067Z,1016.42
2022-07-29T02:53:28.332Z,1016.42
2022-07-29T02:54:01.184Z,1016.32
2022-07-29T02:54:32.433Z,1016.32
2022-07-29T02:55:05.389Z,1016.42
2022-07-29T02:55:36.228Z,1016.42
2022-07-29T02:56:08.936Z,1016.52
2022-07-29T02:56:40.339Z,1016.52
2022-07-29T02:57:12.743Z,1016.42
2022-07-29T02:57:54.345Z,1016.42
2022-07-29T02:58:16.848Z,1016.52
2022-07-29T02:58:48.048Z,1016.52
2022-07-29T02:59:20.786Z,1016.42
2022-07-29T02:59:52.250Z,1016.42
2022-07-29T03:00:26.091Z,1016.52
2022-07-29T03:00:56.128Z,1016.42
2022-07-29T03:01:28.731Z,1016.42
2022-07-29T03:02:00.146Z,1016.52
2022-07-29T03:02:32.629Z,1016.52
2022-07-29T03:03:04.095Z,1016.73
2022-07-29T03:03:37.758Z,1016.73
2022-07-29T03:04:07.887Z,1016.52
2022-07-29T03:04:40.614Z,1016.52
2022-07-29T03:05:12.125Z,1016.32
2022-07-29T03:05:44.454Z,1016.32
2022-07-29T03:06:28.559Z,1016.73
2022-07-29T03:06:48.669Z,1016.73
2022-07-29T03:07:19.806Z,1016.42
2022-07-29T03:07:52.601Z,1016.42
2022-07-29T03:08:23.707Z,1016.52
2022-07-29T03:08:56.371Z,1016.73
2022-07-29T03:09:27.617Z,1016.73
2022-07-29T03:10:00.568Z,1016.42
2022-07-29T03:10:31.477Z,1016.42
2022-07-29T03:11:04.202Z,1016.73
2022-07-29T03:11:42.243Z,1016.73
2022-07-29T03:12:08.318Z,1016.63
2022-07-29T03:12:39.697Z,1016.63
2022-07-29T03:13:12.361Z,1016.42
2022-07-29T03:13:43.613Z,1016.42
2022-07-29T03:14:16.545Z,1016.52
2022-07-29T03:14:47.570Z,1016.52
2022-07-29T03:15:20.781Z,1016.73
2022-07-29T03:15:51.567Z,1016.73
2022-07-29T03:16:24.270Z,1016.73
2022-07-29T03:16:55.453Z,1016.63
2022-07-29T03:17:28.069Z,1016.63
2022-07-29T03:17:59.525Z,1016.52
2022-07-29T03:18:31.915Z,1016.52
2022-07-29T03:19:03.310Z,1016.73
2022-07-29T03:19:36.557Z,1016.73
2022-07-29T03:20:07.413Z,1016.73
2022-07-29T03:20:39.742Z,1016.73
2022-07-29T03:21:11.446Z,1016.52
2022-07-29T03:21:43.845Z,1016.52
2022-07-29T03:22:15.268Z,1016.63
2022-07-29T03:22:47.816Z,1016.63
2022-07-29T03:23:19.138Z,1016.52
2022-07-29T03:23:51.732Z,1016.52
2022-07-29T03:24:23.154Z,1016.52
2022-07-29T03:24:55.757Z,1016.52
2022-07-29T03:25:27.326Z,1016.52
2022-07-29T03:25:59.711Z,1016.63
2022-07-29T03:26:30.888Z,1016.63
2022-07-29T03:27:03.610Z,1016.52
2022-07-29T03:27:35.054Z,1016.52
2022-07-29T03:28:07.663Z,1016.42
2022-07-29T03:28:38.923Z,1016.42
2022-07-29T03:29:11.774Z,1016.42
2022-07-29T03:29:49.590Z,1016.42
2022-07-29T03:30:32.251Z,1016.42
2022-07-29T03:31:02.905Z,1016.52
2022-07-29T03:31:34.866Z,1016.52
2022-07-29T03:32:08.736Z,1016.52
2022-07-29T03:32:38.816Z,1016.52
2022-07-29T03:33:13.487Z,1016.32
2022-07-29T03:33:42.793Z,1016.32
2022-07-29T03:34:14.970Z,1016.52
2022-07-29T03:34:31.676Z,1016.52
2022-07-29T03:35:02.836Z,1016.52
2022-07-29T03:35:35.476Z,1016.52
2022-07-29T03:36:06.751Z,1016.42
2022-07-29T03:36:39.485Z,1016.42
2022-07-29T03:37:10.621Z,1016.42
2022-07-29T03:37:58.669Z,1016.52
2022-07-29T03:38:30.951Z,1016.52
2022-07-29T03:39:02.548Z,1016.52
2022-07-29T03:39:34.482Z,1016.52
2022-07-29T03:40:06.678Z,1016.42
2022-07-29T03:40:38.403Z,1016.42
2022-07-29T03:41:12.331Z,1016.42
2022-07-29T03:41:42.525Z,1016.42
2022-07-29T03:42:34.203Z,1016.32
2022-07-29T03:43:02.330Z,1016.52
2022-07-29T03:43:34.957Z,1016.52
2022-07-29T03:44:06.412Z,1016.32
2022-07-29T03:44:40.242Z,1016.32
2022-07-29T03:45:11.097Z,1016.63
2022-07-29T03:45:43.171Z,1016.63
2022-07-29T03:46:14.326Z,1016.42
2022-07-29T03:46:46.992Z,1016.42
2022-07-29T03:47:18.230Z,1016.42
2022-07-29T03:47:53.750Z,1016.42
2022-07-29T03:48:22.200Z,1016.63
2022-07-29T03:48:54.829Z,1016.63
2022-07-29T03:49:26.566Z,1016.63
2022-07-29T03:49:58.779Z,1016.32
2022-07-29T03:50:30.491Z,1016.32
2022-07-29T03:51:02.695Z,1016.52
2022-07-29T03:51:34.422Z,1016.52
2022-07-29T03:52:06.830Z,1016.42
2022-07-29T03:52:38.246Z,1016.42
2022-07-29T03:53:10.606Z,1016.42
2022-07-29T03:53:42.098Z,1016.42
2022-07-29T03:54:14.695Z,1016.42
2022-07-29T03:54:45.998Z,1016.42
2022-07-29T03:55:18.965Z,1016.52
2022-07-29T03:55:49.962Z,1016.52
2022-07-29T03:56:22.666Z,1016.42
2022-07-29T03:56:54.012Z,1016.42
2022-07-29T03:57:26.706Z,1016.32
2022-07-29T03:57:57.830Z,1016.52
2022-07-29T03:58:30.449Z,1016.52
2022-07-29T03:59:01.893Z,1016.73
2022-07-29T03:59:34.444Z,1016.73
2022-07-29T04:00:06.845Z,1016.63
2022-07-29T04:00:38.582Z,1016.63
2022-07-29T04:01:09.675Z,1016.73
2022-07-29T04:01:42.809Z,1016.73
2022-07-29T04:02:14.798Z,1016.52
2022-07-29T04:02:46.359Z,1016.52
2022-07-29T04:03:17.720Z,1016.83
2022-07-29T04:03:50.443Z,1016.83
2022-07-29T04:04:21.490Z,1016.73
2022-07-29T04:04:54.188Z,1016.73
2022-07-29T04:05:25.878Z,1016.83
2022-07-29T04:05:58.017Z,1016.63
2022-07-29T04:06:29.497Z,1016.63
2022-07-29T04:07:02.191Z,1016.83
2022-07-29T04:07:33.436Z,1016.83
2022-07-29T04:08:06.239Z,1016.73
2022-07-29T04:08:37.487Z,1016.73
2022-07-29T04:09:10.200Z,1016.63
2022-07-29T04:09:41.340Z,1016.63
2022-07-29T04:10:14.320Z,1016.73
2022-07-29T04:10:45.288Z,1016.73
2022-07-29T04:11:17.883Z,1016.73
2022-07-29T04:12:02.103Z,1016.73
2022-07-29T04:12:21.785Z,1016.63
2022-07-29T04:12:53.230Z,1016.63
2022-07-29T04:13:26.030Z,1016.83
2022-07-29T04:13:57.200Z,1016.63
2022-07-29T04:14:29.614Z,1016.63
2022-07-29T04:15:02.301Z,1016.73
2022-07-29T04:15:33.925Z,1016.73
2022-07-29T04:16:05.266Z,1016.63
2022-07-29T04:16:37.808Z,1016.63
2022-07-29T04:17:09.275Z,1016.63
2022-07-29T04:17:41.664Z,1016.63
2022-07-29T04:18:12.974Z,1016.83
2022-07-29T04:18:45.711Z,1016.83
2022-07-29T04:19:16.962Z,1016.63
2022-07-29T04:19:49.496Z,1016.63
2022-07-29T04:20:21.188Z,1016.63
2022-07-29T04:20:53.725Z,1016.63
2022-07-29T04:21:24.895Z,1016.73
2022-07-29T04:21:57.760Z,1016.73
2022-07-29T04:22:28.867Z,1016.73
2022-07-29T04:23:01.517Z,1016.83
2022-07-29T04:23:32.843Z,1016.83
2022-07-29T04:24:05.140Z,1016.63
2022-07-29T04:24:36.799Z,1016.63
2022-07-29T04:25:09.570Z,1016.63
2022-07-29T04:25:40.675Z,1016.63
2022-07-29T04:26:13.575Z,1016.83
2022-07-29T04:26:44.756Z,1016.83
2022-07-29T04:27:17.389Z,1016.83
2022-07-29T04:27:48.691Z,1016.83
2022-07-29T04:28:21.405Z,1016.63
2022-07-29T04:28:52.784Z,1016.63
2022-07-29T04:29:25.207Z,1016.73
2022-07-29T04:29:57.590Z,1016.73
2022-07-29T04:30:30.258Z,1016.73
2022-07-29T04:31:00.467Z,1016.73
2022-07-29T04:31:33.041Z,1016.73
2022-07-29T04:32:04.517Z,1016.83
2022-07-29T04:32:37.048Z,1016.83
2022-07-29T04:33:08.445Z,1016.93
2022-07-29T04:33:41.183Z,1016.93
2022-07-29T04:34:12.402Z,1016.83
2022-07-29T04:34:44.993Z,1016.83
2022-07-29T04:35:16.561Z,1016.73
2022-07-29T04:35:52.393Z,1016.73
2022-07-29T04:36:28.551Z,1016.83
2022-07-29T04:36:53.012Z,1016.83
2022-07-29T04:37:24.621Z,1016.93
2022-07-29T04:37:56.739Z,1016.83
2022-07-29T04:38:28.249Z,1016.83
2022-07-29T04:39:00.940Z,1016.93
2022-07-29T04:39:32.173Z,1016.93
2022-07-29T04:40:05.114Z,1016.93
2022-07-29T04:40:38.663Z,1016.93
2022-07-29T04:41:08.705Z,1016.93
2022-07-29T04:41:40.034Z,1016.93
2022-07-29T04:42:13.306Z,1016.93
2022-07-29T04:42:46.714Z,1016.93
2022-07-29T04:43:16.683Z,1016.83
2022-07-29T04:43:47.992Z,1016.83
2022-07-29T04:44:20.503Z,1016.83
2022-07-29T04:44:51.984Z,1016.83
2022-07-29T04:45:25.582Z,1016.83
2022-07-29T04:45:55.932Z,1016.93
2022-07-29T04:46:28.520Z,1016.93
2022-07-29T04:46:59.911Z,1016.73
2022-07-29T04:47:32.392Z,1016.73
2022-07-29T04:48:03.852Z,1016.93
2022-07-29T04:48:36.456Z,1016.93
2022-07-29T04:49:07.942Z,1016.83
2022-07-29T04:49:40.392Z,1016.83
2022-07-29T04:50:11.935Z,1016.83
2022-07-29T04:50:44.593Z,1016.83
2022-07-29T04:51:15.597Z,1016.83
2022-07-29T04:51:48.204Z,1016.83
2022-07-29T04:52:19.755Z,1016.93
2022-07-29T04:52:52.113Z,1016.93
2022-07-29T04:53:23.733Z,1017.13
2022-07-29T04:53:56.242Z,1016.73
2022-07-29T04:54:27.512Z,1016.73
2022-07-29T04:55:00.018Z,1016.83
2022-07-29T04:55:31.773Z,1016.83
2022-07-29T04:56:03.993Z,1016.83
2022-07-29T04:56:35.441Z,1016.83
2022-07-29T04:57:08.257Z,1017.03
2022-07-29T04:57:39.484Z,1017.03
2022-07-29T04:58:12.127Z,1017.03
2022-07-29T04:58:43.398Z,1017.03
2022-07-29T04:59:16.057Z,1017.03
2022-07-29T04:59:47.329Z,1017.03
2022-07-29T05:00:20.774Z,1016.93
2022-07-29T05:00:51.302Z,1016.93
2022-07-29T05:01:23.945Z,1016.93
2022-07-29T05:01:55.376Z,1016.93
2022-07-29T05:02:28.055Z,1016.93
2022-07-29T05:02:59.243Z,1016.93
2022-07-29T05:03:31.819Z,1016.93
2022-07-29T05:04:03.238Z,1016.83
2022-07-29T05:04:35.651Z,1016.83
2022-07-29T05:05:07.284Z,1017.13
2022-07-29T05:05:39.823Z,1017.13
2022-07-29T05:06:11.118Z,1017.13
2022-07-29T05:06:43.788Z,1017.13
2022-07-29T05:07:15.172Z,1016.93
2022-07-29T05:07:47.595Z,1016.93
2022-07-29T05:08:18.994Z,1017.13
2022-07-29T05:08:51.617Z,1017.13
2022-07-29T05:09:22.958Z,1016.93
2022-07-29T05:09:55.377Z,1016.93
2022-07-29T05:10:27.220Z,1016.93
2022-07-29T05:10:59.376Z,1017.13
2022-07-29T05:11:30.825Z,1017.13
2022-07-29T05:12:03.444Z,1016.93
2022-07-29T05:12:34.793Z,1016.93
2022-07-29T05:13:07.399Z,1017.03
2022-07-29T05:13:45.001Z,1017.03
2022-07-29T05:14:11.399Z,1016.93
2022-07-29T05:14:42.688Z,1016.93
2022-07-29T05:15:16.030Z,1017.03
2022-07-29T05:15:46.850Z,1017.03
2022-07-29T05:16:19.282Z,1016.93
2022-07-29T05:16:50.673Z,1016.93
2022-07-29T05:17:23.236Z,1017.13
2022-07-29T05:17:54.693Z,1017.13
2022-07-29T05:18:27.243Z,1017.03
2022-07-29T05:18:58.607Z,1016.93
2022-07-29T05:19:31.117Z,1016.93
2022-07-29T05:20:02.678Z,1017.03
2022-07-29T05:20:35.468Z,1017.03
2022-07-29T05:21:06.442Z,1017.13
2022-07-29T05:21:39.093Z,1017.13
2022-07-29T05:22:10.568Z,1016.93
2022-07-29T05:22:43.017Z,1016.93
2022-07-29T05:23:14.427Z,1017.03
2022-07-29T05:23:46.980Z,1017.03
2022-07-29T05:24:18.702Z,1016.93
2022-07-29T05:24:51.121Z,1016.93
2022-07-29T05:25:22.663Z,1016.93
2022-07-29T05:25:55.118Z,1016.93
2022-07-29T05:26:26.224Z,1017.13
2022-07-29T05:26:58.968Z,1016.93
2022-07-29T05:27:30.105Z,1016.93
2022-07-29T05:28:02.797Z,1017.03
2022-07-29T05:28:34.193Z,1017.03
2022-07-29T05:29:07.019Z,1017.03
2022-07-29T05:29:41.184Z,1017.03
2022-07-29T05:30:11.485Z,1016.83
2022-07-29T05:30:42.264Z,1016.83
2022-07-29T05:31:14.551Z,1017.13
2022-07-29T05:31:46.079Z,1017.13
2022-07-29T05:32:18.736Z,1017.24
2022-07-29T05:32:49.935Z,1017.24
2022-07-29T05:33:35.700Z,1017.03
2022-07-29T05:33:54.043Z,1017.03
2022-07-29T05:34:26.493Z,1017.13
2022-07-29T05:34:57.922Z,1016.93
2022-07-29T05:35:30.899Z,1016.93
2022-07-29T05:36:01.819Z,1017.13
2022-07-29T05:36:34.588Z,1017.13
2022-07-29T05:37:05.950Z,1016.93
2022-07-29T05:37:38.237Z,1016.93
2022-07-29T05:38:10.056Z,1016.93
2022-07-29T05:38:42.589Z,1016.93
2022-07-29T05:39:14.081Z,1017.13
2022-07-29T05:39:49.074Z,1017.13
2022-07-29T05:40:18.123Z,1016.83
2022-07-29T05:40:50.531Z,1016.83
2022-07-29T05:41:21.780Z,1017.03
2022-07-29T05:41:54.475Z,1017.03
2022-07-29T05:42:26.019Z,1016.83
2022-07-29T05:42:58.447Z,1017.03
2022-07-29T05:43:29.952Z,1017.03
2022-07-29T05:44:02.397Z,1016.93
2022-07-29T05:44:33.700Z,1016.93
2022-07-29T05:45:07.241Z,1016.83
2022-07-29T05:45:49.673Z,1016.83
2022-07-29T05:46:10.445Z,1017.03
2022-07-29T05:46:41.796Z,1017.03
2022-07-29T05:47:14.334Z,1016.73
2022-07-29T05:47:45.590Z,1016.73
2022-07-29T05:48:18.304Z,1016.63
2022-07-29T05:48:49.739Z,1016.73
2022-07-29T05:49:26.943Z,1016.93
2022-07-29T05:49:53.485Z,1016.93
2022-07-29T05:50:26.922Z,1016.83
2022-07-29T05:50:57.444Z,1016.93
2022-07-29T05:51:30.021Z,1016.93
2022-07-29T05:52:01.552Z,1016.93
2022-07-29T05:52:34.182Z,1016.93
2022-07-29T05:53:19.353Z,1016.93
2022-07-29T05:53:38.091Z,1016.93
2022-07-29T05:54:09.586Z,1016.83
2022-07-29T05:54:41.950Z,1016.83
2022-07-29T05:55:13.719Z,1016.93
2022-07-29T05:55:46.497Z,1016.93
2022-07-29T05:56:17.265Z,1016.83
2022-07-29T05:56:49.911Z,1016.93
2022-07-29T05:57:21.349Z,1016.83
2022-07-29T05:57:53.793Z,1016.83
2022-07-29T05:58:25.154Z,1017.03
2022-07-29T05:58:57.729Z,1016.93
2022-07-29T05:59:30.604Z,1016.93
2022-07-29T06:00:03.431Z,1017.03
2022-07-29T06:00:33.145Z,1017.03
2022-07-29T06:01:05.512Z,1017.03
2022-07-29T06:01:37.166Z,1017.03
2022-07-29T06:02:09.805Z,1016.83
2022-07-29T06:02:41.068Z,1016.83
2022-07-29T06:03:13.666Z,1016.93
2022-07-29T06:03:45.024Z,1016.93
2022-07-29T06:04:17.805Z,1016.93
2022-07-29T06:04:49.020Z,1016.93
2022-07-29T06:05:21.821Z,1016.93
2022-07-29T06:05:52.818Z,1016.93
2022-07-29T06:06:25.346Z,1016.93
2022-07-29T06:06:56.960Z,1017.03
2022-07-29T06:07:29.563Z,1017.03
2022-07-29T06:08:00.887Z,1017.03
2022-07-29T06:08:33.524Z,1017.03
2022-07-29T06:09:12.137Z,1016.83
2022-07-29T06:09:37.307Z,1016.83
2022-07-29T06:10:08.772Z,1016.73
2022-07-29T06:10:41.279Z,1016.73
2022-07-29T06:11:12.805Z,1017.03
2022-07-29T06:11:45.234Z,1017.03
2022-07-29T06:12:16.638Z,1016.93
2022-07-29T06:12:49.399Z,1016.93
2022-07-29T06:13:20.501Z,1017.03
2022-07-29T06:13:53.153Z,1017.03
2022-07-29T06:14:24.582Z,1017.13
2022-07-29T06:14:57.139Z,1016.83
2022-07-29T06:15:29.537Z,1016.83
2022-07-29T06:16:01.355Z,1017.24
2022-07-29T06:16:32.550Z,1017.24
2022-07-29T06:17:05.162Z,1017.03
2022-07-29T06:17:36.504Z,1017.03
2022-07-29T06:18:09.000Z,1017.03
2022-07-29T06:18:40.363Z,1017.03
2022-07-29T06:19:13.022Z,1016.93
2022-07-29T06:19:44.457Z,1016.93
2022-07-29T06:20:17.081Z,1017.03
2022-07-29T06:20:48.444Z,1017.03
2022-07-29T06:21:20.878Z,1016.93
2022-07-29T06:21:52.199Z,1016.93
2022-07-29T06:22:25.094Z,1016.93
2022-07-29T06:22:56.178Z,1016.83
2022-07-29T06:23:29.290Z,1016.83
2022-07-29T06:24:00.255Z,1016.83
2022-07-29T06:24:32.934Z,1016.83
2022-07-29T06:25:06.913Z,1016.93
2022-07-29T06:25:37.049Z,1016.93
2022-07-29T06:26:08.237Z,1016.73
2022-07-29T06:26:40.662Z,1016.73
2022-07-29T06:27:12.367Z,1017.03